Time;durP1;ratioP1;P1;durP2;ratioP2;P2;SDS_P1;SDS_P2;PMS_P1;PMS_P2;Temp;Humidity;BMP_temperature;BMP_pressure;BME280_temperature;BME280_humidity;BME280_pressure;Samples;Min_cycle;Max_cycle;Signal;HPM_P1;HPM_P2
2023/07/20 00:01:44;;;;;;;;;;;;;;;32.26;60.44;101273.13;5094879;28;19928;-51
2023/07/20 00:04:10;;;;;;;;;;;;;;;32.46;58.97;101272.38;5094656;28;19907;-53
2023/07/20 00:06:40;;;;;;;;;;;;;;;32.27;58.42;101271.97;5094906;28;19917;-55
2023/07/20 00:09:06;;;;;;;;;;;;;;;32.28;57.65;101274.41;5103079;28;19948;-53
2023/07/20 00:11:31;;;;;;;;;;;;;;;31.94;59.85;101267.09;5094455;28;19984;-54
2023/07/20 00:13:57;;;;;;;;;;;;;;;32.11;61.52;101272.56;5094549;28;19940;-55
2023/07/20 00:16:22;;;;;;;;;;;;;;;32.54;58.06;101275.44;5094571;28;19920;-51
2023/07/20 00:18:48;;;;;;;;;;;;;;;32.57;57.25;101283.88;5094676;28;19920;-54
2023/07/20 00:21:13;;;;;;;;;;;;;;;32.41;57.66;101278.13;5102941;28;19916;-52
2023/07/20 00:23:39;;;;;;;;;;;;;;;32.40;57.06;101279.25;5098046;28;19917;-51
2023/07/20 00:26:04;;;;;;;;;;;;;;;32.43;56.81;101275.81;5094817;28;19947;-54
2023/07/20 00:28:30;;;;;;;;;;;;;;;32.20;59.49;101278.03;5097424;28;19920;-56
2023/07/20 00:30:56;;;;;;;;;;;;;;;32.38;59.55;101283.50;5099437;28;19916;-53
2023/07/20 00:33:21;;;;;;;;;;;;;;;32.50;55.77;101280.81;5089673;28;20007;-48
2023/07/20 00:35:47;;;;;;;;;;;;;;;32.40;56.49;101279.25;5110709;28;19930;-48
2023/07/20 00:38:15;;;;;;;;;;;;;;;32.54;54.75;101278.22;5079964;28;19923;-48
2023/07/20 00:40:41;;;;;;;;;;;;;;;32.42;55.53;101279.72;5122585;28;19916;-48
2023/07/20 00:43:07;;;;;;;;;;;;;;;32.39;54.38;101280.41;5120503;28;19957;-47
2023/07/20 00:45:33;;;;;;;;;;;;;;;32.51;55.11;101282.44;5077101;28;19916;-52
2023/07/20 00:47:59;;;;;;;;;;;;;;;32.25;55.81;101280.63;5094138;28;19928;-48
2023/07/20 00:50:26;;;;;;;;;;;;;;;32.44;55.50;101282.97;5076755;28;19917;-49
2023/07/20 00:52:51;;;;;;;;;;;;;;;32.33;55.00;101285.31;5080432;28;19916;-54
2023/07/20 00:55:18;;;;;;;;;;;;;;;32.25;56.85;101280.63;5110310;28;19920;-54
2023/07/20 00:57:44;;;;;;;;;;;;;;;32.14;56.89;101282.13;5110439;28;19916;-53
2023/07/20 01:00:10;;;;;;;;;;;;;;;32.65;54.01;101289.69;5101147;28;19916;-53
2023/07/20 01:02:36;;;;;;;;;;;;;;;32.77;52.61;101286.19;5094293;28;19999;-51
2023/07/20 01:05:03;;;;;;;;;;;;;;;33.08;52.07;101285.78;5094385;28;19951;-55
2023/07/20 01:08:04;;;;;;;;;;;;;;;33.17;51.18;101286.53;5075896;28;19917;-52
2023/07/20 01:10:34;;;;;;;;;;;;;;;32.53;54.24;101287.66;5036253;28;19926;-53
2023/07/20 01:13:01;;;;;;;;;;;;;;;32.57;55.17;101288.59;5067905;28;19917;-52
2023/07/20 01:15:27;;;;;;;;;;;;;;;32.69;53.88;101294.22;5076386;28;19927;-54
2023/07/20 01:17:53;;;;;;;;;;;;;;;32.71;53.82;101289.13;5094209;28;19956;-53
2023/07/20 01:20:20;;;;;;;;;;;;;;;32.67;53.87;101293.72;5094339;28;19916;-56
2023/07/20 01:23:04;;;;;;;;;;;;;;;32.63;53.23;101287.25;5098183;28;19941;-49
2023/07/20 01:25:33;;;;;;;;;;;;;;;32.27;54.60;101288.56;5095728;28;19917;-54
2023/07/20 01:27:59;;;;;;;;;;;;;;;32.25;54.86;101288.09;5093879;28;19923;-54
2023/07/20 01:30:28;;;;;;;;;;;;;;;32.25;54.96;101283.38;5093824;28;19955;-52
2023/07/20 01:32:55;;;;;;;;;;;;;;;32.09;54.93;101291.44;5098155;28;19927;-54
2023/07/20 01:35:23;;;;;;;;;;;;;;;31.58;56.84;101289.28;5110344;28;19931;-55
2023/07/20 01:37:50;;;;;;;;;;;;;;;31.61;56.44;101288.66;5093864;28;19917;-53
2023/07/20 01:40:16;;;;;;;;;;;;;;;31.30;58.41;101292.41;5101814;28;19917;-54
2023/07/20 01:42:46;;;;;;;;;;;;;;;31.83;57.08;101289.59;5095619;28;19923;-51
2023/07/20 01:45:11;;;;;;;;;;;;;;;32.02;55.54;101285.59;5093758;28;19912;-49
2023/07/20 01:47:37;;;;;;;;;;;;;;;31.97;55.09;101292.13;5097280;28;19921;-53
2023/07/20 01:50:02;;;;;;;;;;;;;;;31.71;55.36;101292.19;5102615;28;19920;-52
2023/07/20 01:52:28;;;;;;;;;;;;;;;31.37;56.03;101299.41;5090318;28;19958;-51
2023/07/20 01:54:53;;;;;;;;;;;;;;;32.18;53.61;101288.63;5097311;28;19916;-52
2023/07/20 01:57:19;;;;;;;;;;;;;;;31.22;56.53;101293.25;5097242;28;19939;-48
2023/07/20 01:59:45;;;;;;;;;;;;;;;30.59;59.87;101291.53;5115648;28;19916;-52
2023/07/20 02:02:11;;;;;;;;;;;;;;;30.44;60.46;101295.53;5079396;28;19923;-50
2023/07/20 02:04:36;;;;;;;;;;;;;;;30.86;58.86;101297.09;5096941;28;19995;-51
2023/07/20 02:07:02;;;;;;;;;;;;;;;30.57;61.21;101295.75;5096891;28;19928;-53
2023/07/20 02:09:27;;;;;;;;;;;;;;;30.60;60.12;101295.91;5079235;28;19928;-51
2023/07/20 02:11:52;;;;;;;;;;;;;;;30.75;58.54;101297.44;5113049;28;20003;-52
2023/07/20 02:14:19;;;;;;;;;;;;;;;30.92;57.39;101295.84;5112601;28;19916;-54
2023/07/20 02:16:45;;;;;;;;;;;;;;;30.36;61.43;101295.53;5097034;28;19921;-49
2023/07/20 02:19:13;;;;;;;;;;;;;;;30.38;61.53;101294.06;5098709;28;19966;-49
2023/07/20 02:21:39;;;;;;;;;;;;;;;30.57;59.90;101301.25;5119750;28;19917;-52
2023/07/20 02:24:04;;;;;;;;;;;;;;;30.77;58.18;101294.34;5079238;28;19913;-54
2023/07/20 02:26:30;;;;;;;;;;;;;;;30.27;60.88;101295.50;5096653;28;19938;-53
2023/07/20 02:28:55;;;;;;;;;;;;;;;30.44;60.39;101301.06;5079022;28;20036;-54
2023/07/20 02:31:21;;;;;;;;;;;;;;;30.93;56.45;101296.63;5096539;28;19920;-53
2023/07/20 02:33:47;;;;;;;;;;;;;;;30.31;60.16;101302.00;5078807;28;19920;-51
2023/07/20 02:36:13;;;;;;;;;;;;;;;30.36;59.42;101303.81;5078805;28;19921;-52
2023/07/20 02:38:38;;;;;;;;;;;;;;;30.43;60.27;101306.91;5112075;28;19924;-54
2023/07/20 02:41:04;;;;;;;;;;;;;;;30.33;60.55;101308.84;5096462;28;19984;-52
2023/07/20 02:43:29;;;;;;;;;;;;;;;30.63;59.98;101307.47;5089578;28;19923;-54
2023/07/20 02:45:55;;;;;;;;;;;;;;;30.77;58.55;101313.66;5103103;28;19917;-51
2023/07/20 02:48:20;;;;;;;;;;;;;;;30.28;60.20;101311.72;5096154;28;19999;-49
2023/07/20 02:50:47;;;;;;;;;;;;;;;30.08;61.98;101318.63;5108718;28;19916;-51
2023/07/20 02:53:13;;;;;;;;;;;;;;;29.84;63.59;101314.25;5116983;28;19954;-52
2023/07/20 02:55:38;;;;;;;;;;;;;;;29.54;65.83;101310.34;5096047;28;19923;-53
2023/07/20 02:58:04;;;;;;;;;;;;;;;29.59;65.29;101324.81;5096047;28;19921;-49
2023/07/20 03:00:29;;;;;;;;;;;;;;;29.87;64.11;101321.88;5105029;28;19915;-49
2023/07/20 03:02:55;;;;;;;;;;;;;;;29.71;64.96;101320.66;5095917;28;19955;-47
2023/07/20 03:05:22;;;;;;;;;;;;;;;30.02;62.58;101326.22;5097941;28;19920;-56
2023/07/20 03:07:48;;;;;;;;;;;;;;;30.02;62.51;101331.72;5090316;28;19951;-52
2023/07/20 03:10:14;;;;;;;;;;;;;;;29.95;63.04;101330.50;5088285;28;19921;-54
2023/07/20 03:12:40;;;;;;;;;;;;;;;30.17;61.00;101330.50;5095639;28;19988;-54
2023/07/20 03:15:06;;;;;;;;;;;;;;;30.26;61.03;101330.53;5061983;28;19917;-52
2023/07/20 03:17:31;;;;;;;;;;;;;;;30.38;60.26;101331.88;5089164;28;19917;-50
2023/07/20 03:19:57;;;;;;;;;;;;;;;30.26;61.24;101332.50;5104904;28;19930;-50
2023/07/20 03:22:24;;;;;;;;;;;;;;;30.15;61.39;101335.50;5094973;28;19917;-54
2023/07/20 03:24:49;;;;;;;;;;;;;;;30.44;59.53;101336.91;5105800;28;19916;-54
2023/07/20 03:27:15;;;;;;;;;;;;;;;30.22;59.21;101342.50;5077641;28;19938;-52
2023/07/20 03:29:40;;;;;;;;;;;;;;;30.01;60.56;101345.81;5077961;28;20007;-54
2023/07/20 03:32:06;;;;;;;;;;;;;;;29.72;61.73;101336.06;5078457;28;19938;-52
2023/07/20 03:34:31;;;;;;;;;;;;;;;29.98;60.38;101341.72;5106755;28;19923;-52
2023/07/20 03:36:59;;;;;;;;;;;;;;;30.22;58.45;101345.25;5115401;28;19927;-54
2023/07/20 03:39:26;;;;;;;;;;;;;;;29.89;60.43;101344.44;5100810;28;19916;-50
2023/07/20 03:41:53;;;;;;;;;;;;;;;29.75;60.40;101330.75;5120879;28;19916;-55
2023/07/20 03:44:19;;;;;;;;;;;;;;;29.90;60.71;101337.00;5081937;28;19916;-54
2023/07/20 03:46:45;;;;;;;;;;;;;;;29.94;59.41;101332.47;5083396;28;19923;-51
2023/07/20 03:49:10;;;;;;;;;;;;;;;29.93;59.40;101332.78;5094862;28;19963;-53
2023/07/20 03:51:36;;;;;;;;;;;;;;;29.77;59.70;101339.50;5101076;28;19921;-50
2023/07/20 03:54:02;;;;;;;;;;;;;;;29.82;59.20;101338.56;5123547;28;19923;-53
2023/07/20 03:56:27;;;;;;;;;;;;;;;29.58;60.21;101339.72;5077349;28;19925;-52
2023/07/20 03:58:52;;;;;;;;;;;;;;;29.66;60.15;101334.56;5077405;28;19927;-54
2023/07/20 04:01:18;;;;;;;;;;;;;;;29.51;60.69;101333.81;5097295;28;19917;-53
2023/07/20 04:03:43;;;;;;;;;;;;;;;29.32;62.37;101345.81;5103034;28;19916;-52
2023/07/20 04:06:09;;;;;;;;;;;;;;;29.43;62.15;101337.31;5077105;28;19938;-50
2023/07/20 04:08:35;;;;;;;;;;;;;;;29.39;62.40;101342.59;5094319;28;19920;-53
2023/07/20 04:11:01;;;;;;;;;;;;;;;29.19;63.65;101341.97;5095813;28;19913;-52
2023/07/20 04:13:27;;;;;;;;;;;;;;;29.38;62.82;101353.94;5076997;28;19921;-54
2023/07/20 04:15:53;;;;;;;;;;;;;;;29.11;63.60;101347.41;5077407;28;19916;-51
2023/07/20 04:18:19;;;;;;;;;;;;;;;29.29;63.26;101345.59;5094627;28;19923;-55
2023/07/20 04:20:45;;;;;;;;;;;;;;;29.13;63.87;101350.66;5094733;28;19924;-51
2023/07/20 04:23:10;;;;;;;;;;;;;;;29.87;60.81;101346.69;5097725;28;19916;-53
2023/07/20 04:25:39;;;;;;;;;;;;;;;29.19;62.54;101350.25;5095382;28;19991;-55
2023/07/20 04:28:08;;;;;;;;;;;;;;;29.44;61.48;101355.47;5110843;28;19917;-51
2023/07/20 04:30:36;;;;;;;;;;;;;;;29.39;61.87;101358.31;5077275;28;19963;-53
2023/07/20 04:33:02;;;;;;;;;;;;;;;30.03;59.25;101360.13;5111197;28;19917;-53
2023/07/20 04:35:47;;;;;;;;;;;;;;;29.94;59.07;101361.97;5113119;28;19931;-53
2023/07/20 04:38:17;;;;;;;;;;;;;;;29.84;59.09;101358.34;5076821;28;19916;-54
2023/07/20 04:40:45;;;;;;;;;;;;;;;29.88;59.52;101351.09;5113400;28;19936;-50
2023/07/20 04:43:11;;;;;;;;;;;;;;;29.48;61.31;101360.06;5080875;28;19916;-51
2023/07/20 04:45:37;;;;;;;;;;;;;;;29.83;60.33;101359.50;5120424;28;20367;-55
2023/07/20 04:48:03;;;;;;;;;;;;;;;29.73;60.66;101362.47;5110587;28;19985;-49
2023/07/20 04:50:31;;;;;;;;;;;;;;;29.43;61.57;101362.94;5110194;28;20041;-52
2023/07/20 04:52:56;;;;;;;;;;;;;;;29.72;61.08;101372.72;5097061;28;19988;-55
2023/07/20 04:55:21;;;;;;;;;;;;;;;29.23;63.45;101366.94;5076733;28;19916;-49
2023/07/20 04:57:47;;;;;;;;;;;;;;;29.94;60.04;101378.50;5094519;28;19962;-53
2023/07/20 05:00:14;;;;;;;;;;;;;;;30.33;58.22;101376.97;5076749;28;19944;-54
2023/07/20 05:02:40;;;;;;;;;;;;;;;30.48;58.01;101378.50;5110426;28;19923;-50
2023/07/20 05:05:06;;;;;;;;;;;;;;;30.13;58.68;101379.13;5110446;28;20378;-55
2023/07/20 05:07:32;;;;;;;;;;;;;;;29.96;60.56;101366.06;5076748;28;19927;-54
2023/07/20 05:09:57;;;;;;;;;;;;;;;30.30;57.28;101375.66;5110345;28;19924;-53
2023/07/20 05:12:23;;;;;;;;;;;;;;;30.33;57.43;101376.97;5093897;28;19927;-51
2023/07/20 05:14:48;;;;;;;;;;;;;;;29.99;59.68;101375.66;5111294;28;19917;-53
2023/07/20 05:17:14;;;;;;;;;;;;;;;30.10;57.83;101376.19;5109867;28;19916;-54
2023/07/20 05:19:39;;;;;;;;;;;;;;;30.17;59.50;101379.34;5110667;28;19924;-52
2023/07/20 05:22:05;;;;;;;;;;;;;;;30.60;57.13;101378.72;5114145;28;19917;-54
2023/07/20 05:24:31;;;;;;;;;;;;;;;30.71;56.56;101384.78;5097944;28;19924;-52
2023/07/20 05:26:58;;;;;;;;;;;;;;;30.80;56.29;101383.97;5097805;28;19951;-54
2023/07/20 05:29:24;;;;;;;;;;;;;;;31.11;56.35;101386.63;5097756;28;19946;-55
2023/07/20 05:31:49;;;;;;;;;;;;;;;31.23;54.83;101376.91;5097536;28;19916;-55
2023/07/20 05:34:15;;;;;;;;;;;;;;;31.17;54.05;101377.06;5097768;28;19916;-52
2023/07/20 05:36:40;;;;;;;;;;;;;;;30.94;52.97;101381.91;5109026;28;19927;-49
2023/07/20 05:39:06;;;;;;;;;;;;;;;30.57;55.01;101382.09;5080253;28;19917;-53
2023/07/20 05:41:31;;;;;;;;;;;;;;;30.92;54.24;101383.34;5079928;28;19943;-53
2023/07/20 05:43:57;;;;;;;;;;;;;;;30.96;53.79;101385.16;5097580;28;19925;-55
2023/07/20 05:46:24;;;;;;;;;;;;;;;31.14;53.53;101390.69;5097384;28;19991;-51
2023/07/20 05:48:49;;;;;;;;;;;;;;;31.09;53.00;101390.84;5108525;28;19920;-53
2023/07/20 05:51:15;;;;;;;;;;;;;;;31.03;53.65;101395.72;5100664;28;19948;-52
2023/07/20 05:53:41;;;;;;;;;;;;;;;31.22;52.89;101384.41;5097374;28;19923;-52
2023/07/20 05:56:10;;;;;;;;;;;;;;;30.82;54.56;101387.22;5104704;28;19921;-53
2023/07/20 05:58:36;;;;;;;;;;;;;;;30.86;54.76;101391.78;5097347;28;19921;-49
2023/07/20 06:01:03;;;;;;;;;;;;;;;31.26;54.05;101390.09;5097045;28;20007;-54
2023/07/20 06:03:29;;;;;;;;;;;;;;;31.15;53.43;101401.44;5082176;28;19924;-52
2023/07/20 06:06:01;;;;;;;;;;;;;;;30.58;56.31;101397.53;5098776;28;19918;-48
2023/07/20 06:08:27;;;;;;;;;;;;;;;30.91;55.44;101404.66;5096812;28;19947;-48
2023/07/20 06:10:53;;;;;;;;;;;;;;;31.00;54.52;101402.72;5096503;28;19923;-52
2023/07/20 06:13:18;;;;;;;;;;;;;;;30.82;55.47;101403.78;5096758;28;19968;-48
2023/07/20 06:15:44;;;;;;;;;;;;;;;30.85;54.88;101406.75;5079886;28;19916;-51
2023/07/20 06:18:10;;;;;;;;;;;;;;;30.87;54.54;101409.16;5105779;28;19912;-49
2023/07/20 06:20:35;;;;;;;;;;;;;;;30.91;54.50;101407.41;5096604;28;19912;-48
2023/07/20 06:23:01;;;;;;;;;;;;;;;30.96;54.15;101411.94;5098154;28;19916;-53
2023/07/20 06:25:26;;;;;;;;;;;;;;;31.12;53.38;101410.38;5099789;28;19956;-50
2023/07/20 06:27:52;;;;;;;;;;;;;;;31.38;52.15;101417.88;5096664;28;20385;-50
2023/07/20 06:30:17;;;;;;;;;;;;;;;31.26;52.90;101421.28;5096020;28;19924;-48
2023/07/20 06:32:43;;;;;;;;;;;;;;;31.10;51.98;101420.09;5095949;28;19916;-49
2023/07/20 06:35:10;;;;;;;;;;;;;;;31.71;50.95;101413.81;5095238;28;19917;-50
2023/07/20 06:37:35;;;;;;;;;;;;;;;31.61;50.36;101424.09;5093228;28;19920;-49
2023/07/20 06:40:04;;;;;;;;;;;;;;;31.31;51.16;101414.81;5078449;28;19938;-48
2023/07/20 06:42:30;;;;;;;;;;;;;;;31.53;50.57;101413.03;5088114;28;19916;-51
2023/07/20 06:44:57;;;;;;;;;;;;;;;31.65;49.19;101415.13;5096267;28;19988;-50
2023/07/20 06:47:22;;;;;;;;;;;;;;;31.60;49.98;101424.41;5092099;28;19920;-49
2023/07/20 06:49:48;;;;;;;;;;;;;;;31.84;49.85;101423.94;5096374;28;19931;-51
2023/07/20 06:52:13;;;;;;;;;;;;;;;32.10;48.05;101428.59;5093203;28;19974;-54
2023/07/20 06:54:39;;;;;;;;;;;;;;;32.21;48.00;101428.22;5097478;28;19916;-53
2023/07/20 06:57:05;;;;;;;;;;;;;;;32.43;46.73;101425.25;5096035;28;19916;-50
2023/07/20 06:59:30;;;;;;;;;;;;;;;32.36;47.99;101422.19;5096299;28;19927;-48
2023/07/20 07:01:55;;;;;;;;;;;;;;;31.87;49.57;101414.97;5092339;28;19916;-47
2023/07/20 07:04:21;;;;;;;;;;;;;;;32.39;47.22;101417.94;5095989;28;19988;-50
2023/07/20 07:06:46;;;;;;;;;;;;;;;32.59;45.61;101421.94;5101998;28;19923;-49
2023/07/20 07:09:12;;;;;;;;;;;;;;;32.78;46.33;101420.72;5095712;28;19942;-49
2023/07/20 07:11:37;;;;;;;;;;;;;;;33.01;46.88;101430.38;5094472;28;19921;-50
2023/07/20 07:14:03;;;;;;;;;;;;;;;32.80;46.53;101432.28;5095286;28;19924;-52
2023/07/20 07:16:28;;;;;;;;;;;;;;;33.06;45.76;101432.13;5099429;28;19923;-50
2023/07/20 07:18:54;;;;;;;;;;;;;;;33.24;46.06;101432.84;5103565;28;19918;-54
2023/07/20 07:21:20;;;;;;;;;;;;;;;33.75;43.81;101435.53;5094871;28;19916;-49
2023/07/20 07:23:46;;;;;;;;;;;;;;;33.86;43.88;101435.91;5092542;28;19921;-51
2023/07/20 07:26:11;;;;;;;;;;;;;;;33.83;43.23;101431.06;5097181;28;19923;-55
2023/07/20 07:28:37;;;;;;;;;;;;;;;33.84;43.42;101437.44;5095728;28;19956;-51
2023/07/20 07:31:05;;;;;;;;;;;;;;;33.85;43.45;101434.31;5094964;28;19984;-55
2023/07/20 07:33:31;;;;;;;;;;;;;;;34.18;42.92;101441.84;5092922;28;19920;-52
2023/07/20 07:35:57;;;;;;;;;;;;;;;34.23;40.71;101428.88;5092237;28;19916;-54
2023/07/20 07:38:23;;;;;;;;;;;;;;;34.31;41.40;101439.06;5094913;28;19916;-54
2023/07/20 07:40:48;;;;;;;;;;;;;;;34.70;40.77;101436.00;5094585;28;19917;-49
2023/07/20 07:43:14;;;;;;;;;;;;;;;33.98;41.59;101437.16;5095241;28;19962;-53
2023/07/20 07:45:40;;;;;;;;;;;;;;;34.25;40.70;101440.44;5093211;28;19923;-56
2023/07/20 07:48:06;;;;;;;;;;;;;;;34.55;40.68;101431.94;5092826;28;19976;-49
2023/07/20 07:50:32;;;;;;;;;;;;;;;34.82;40.43;101437.97;5094672;28;19916;-50
2023/07/20 07:52:57;;;;;;;;;;;;;;;35.12;40.05;101440.53;5095071;28;19951;-49
2023/07/20 07:55:24;;;;;;;;;;;;;;;35.22;38.46;101445.56;5094777;28;19931;-50
2023/07/20 07:57:49;;;;;;;;;;;;;;;35.12;38.73;101448.84;5094988;28;19916;-49
2023/07/20 08:00:18;;;;;;;;;;;;;;;35.25;38.48;101446.84;5094743;28;19916;-52
2023/07/20 08:02:44;;;;;;;;;;;;;;;35.51;37.30;101452.00;5096354;28;19940;-54
2023/07/20 08:05:10;;;;;;;;;;;;;;;35.16;37.42;101450.56;5114899;28;19978;-53
2023/07/20 08:07:36;;;;;;;;;;;;;;;35.71;36.46;101453.00;5095118;28;19917;-49
2023/07/20 08:10:02;;;;;;;;;;;;;;;35.74;36.11;101451.44;5094736;28;20000;-53
2023/07/20 08:12:28;;;;;;;;;;;;;;;35.95;35.59;101454.03;5092338;28;19924;-50
2023/07/20 08:14:53;;;;;;;;;;;;;;;36.02;34.84;101462.59;5110863;28;19916;-48
2023/07/20 08:17:19;;;;;;;;;;;;;;;35.16;35.33;101455.31;5094707;28;19938;-48
2023/07/20 08:19:46;;;;;;;;;;;;;;;35.89;34.77;101456.25;5094779;28;19957;-50
2023/07/20 08:22:12;;;;;;;;;;;;;;;35.96;34.07;101464.00;5093902;28;19923;-53
2023/07/20 08:24:40;;;;;;;;;;;;;;;35.65;35.09;101467.50;5094730;28;19920;-50
2023/07/20 08:27:08;;;;;;;;;;;;;;;35.71;34.99;101458.56;5096950;28;19917;-49
2023/07/20 08:29:34;;;;;;;;;;;;;;;36.02;34.46;101467.38;5102599;28;19924;-49
2023/07/20 08:32:00;;;;;;;;;;;;;;;36.11;33.86;101470.78;5094440;28;19928;-52
2023/07/20 08:34:25;;;;;;;;;;;;;;;36.15;33.52;101468.91;5094723;28;19980;-49
2023/07/20 08:36:51;;;;;;;;;;;;;;;35.85;34.00;101469.28;5094466;28;19917;-49
2023/07/20 08:39:17;;;;;;;;;;;;;;;36.17;33.84;101469.34;5101772;28;19916;-50
2023/07/20 08:41:43;;;;;;;;;;;;;;;36.21;34.47;101463.88;5094062;28;19935;-53
2023/07/20 08:44:10;;;;;;;;;;;;;;;36.13;34.54;101462.88;5094753;28;19975;-50
2023/07/20 08:46:37;;;;;;;;;;;;;;;36.10;35.09;101471.94;5094624;28;19924;-50
2023/07/20 08:49:02;;;;;;;;;;;;;;;35.71;34.68;101466.06;5094618;28;19921;-52
2023/07/20 08:51:29;;;;;;;;;;;;;;;35.43;35.33;101462.09;5093717;28;19940;-49
2023/07/20 08:53:54;;;;;;;;;;;;;;;35.87;34.75;101457.78;5100988;28;20034;-50
2023/07/20 08:56:21;;;;;;;;;;;;;;;36.02;33.70;101461.81;5097300;28;19924;-48
2023/07/20 08:58:46;;;;;;;;;;;;;;;36.31;33.51;101460.56;5098350;28;19916;-54
2023/07/20 09:01:12;;;;;;;;;;;;;;;36.59;33.68;101467.25;5096734;28;19917;-50
2023/07/20 09:03:39;;;;;;;;;;;;;;;36.94;32.58;101466.50;5098544;28;19927;-50
2023/07/20 09:06:05;;;;;;;;;;;;;;;36.62;31.78;101466.53;5098190;28;19917;-49
2023/07/20 09:08:30;;;;;;;;;;;;;;;36.82;31.62;101463.81;5107333;28;19920;-54
2023/07/20 09:10:56;;;;;;;;;;;;;;;37.47;31.00;101465.25;5096159;28;19976;-54
2023/07/20 09:13:22;;;;;;;;;;;;;;;37.50;31.66;101470.13;5097884;28;19939;-52
2023/07/20 09:15:52;;;;;;;;;;;;;;;37.50;31.84;101469.34;5096645;28;19935;-52
2023/07/20 09:18:27;;;;;;;;;;;;;;;37.77;31.49;101464.69;5105862;28;19924;-54
2023/07/20 09:20:59;;;;;;;;;;;;;;;38.07;31.02;101466.88;5097880;28;19920;-50
2023/07/20 09:23:31;;;;;;;;;;;;;;;38.04;30.82;101475.19;5097566;28;19921;-50
2023/07/20 09:25:57;;;;;;;;;;;;;;;37.86;31.20;101470.03;5086727;28;19916;-54
2023/07/20 09:28:23;;;;;;;;;;;;;;;36.85;32.04;101466.69;5100930;28;19970;-50
2023/07/20 09:30:48;;;;;;;;;;;;;;;36.94;31.80;101466.50;5097935;28;19988;-49
2023/07/20 09:33:24;;;;;;;;;;;;;;;35.94;32.92;101466.34;5097531;28;19948;-53
2023/07/20 09:35:49;;;;;;;;;;;;;;;36.24;32.66;101467.94;5088638;28;19924;-55
2023/07/20 09:38:15;;;;;;;;;;;;;;;36.58;32.24;101471.19;5099152;28;19996;-54
2023/07/20 09:40:42;;;;;;;;;;;;;;;36.35;32.52;101457.88;5097866;28;19923;-54
2023/07/20 09:43:08;;;;;;;;;;;;;;;34.74;34.04;101448.84;5096869;28;19916;-50
2023/07/20 09:45:36;;;;;;;;;;;;;;;35.80;33.27;101458.41;5097772;28;19945;-52
2023/07/20 09:48:08;;;;;;;;;;;;;;;36.12;33.28;101455.69;5097350;28;19917;-50
2023/07/20 09:50:39;;;;;;;;;;;;;;;36.86;32.52;101459.94;5097778;28;19936;-50
2023/07/20 09:53:05;;;;;;;;;;;;;;;37.63;31.25;101458.84;5095613;28;19916;-49
2023/07/20 09:55:31;;;;;;;;;;;;;;;38.44;30.76;101466.34;5095475;28;19998;-50
2023/07/20 09:57:56;;;;;;;;;;;;;;;38.81;29.38;101461.34;5098747;28;19916;-48
2023/07/20 10:00:22;;;;;;;;;;;;;;;38.87;29.88;101454.22;5095401;28;19920;-52
2023/07/20 10:02:49;;;;;;;;;;;;;;;39.12;29.72;101459.41;5076897;28;19991;-55
2023/07/20 10:05:16;;;;;;;;;;;;;;;39.63;29.56;101455.25;5078415;28;19948;-51
2023/07/20 10:07:48;;;;;;;;;;;;;;;41.06;27.41;101469.28;5099903;28;19917;-51
2023/07/20 10:10:15;;;;;;;;;;;;;;;40.57;27.53;101466.56;5097333;28;19920;-51
2023/07/20 10:12:41;;;;;;;;;;;;;;;41.31;26.22;101463.06;5084496;28;19920;-53
2023/07/20 10:15:21;;;;;;;;;;;;;;;42.13;25.97;101468.09;5106482;28;19984;-49
2023/07/20 10:17:51;;;;;;;;;;;;;;;41.71;25.15;101469.63;5078922;28;19943;-49
2023/07/20 10:20:20;;;;;;;;;;;;;;;42.89;23.99;101466.47;5084157;28;19920;-51
2023/07/20 10:22:46;;;;;;;;;;;;;;;42.99;24.44;101466.44;5077328;28;19921;-50
2023/07/20 10:25:13;;;;;;;;;;;;;;;43.10;24.31;101471.22;5096525;28;19916;-50
2023/07/20 10:27:39;;;;;;;;;;;;;;;41.18;26.49;101457.78;5084957;28;19916;-55
2023/07/20 10:30:05;;;;;;;;;;;;;;;41.34;26.41;101456.66;5079068;28;19939;-52
2023/07/20 10:32:31;;;;;;;;;;;;;;;40.87;25.45;101457.19;5096688;28;19920;-50
2023/07/20 10:34:57;;;;;;;;;;;;;;;40.82;25.73;101455.56;5096315;28;19917;-51
2023/07/20 10:37:41;;;;;;;;;;;;;;;40.28;26.01;101455.16;5101237;28;19926;-54
2023/07/20 10:40:25;;;;;;;;;;;;;;;40.04;26.94;101448.91;5108281;28;19900;-58
2023/07/20 10:42:51;;;;;;;;;;;;;;;40.11;27.15;101451.75;5079116;28;19923;-54
2023/07/20 10:45:19;;;;;;;;;;;;;;;40.30;27.37;101444.34;5096686;28;19944;-53
2023/07/20 10:47:47;;;;;;;;;;;;;;;40.12;27.58;101447.75;5078705;28;19917;-52
2023/07/20 10:50:12;;;;;;;;;;;;;;;40.96;27.45;101443.63;5085339;28;19921;-49
2023/07/20 10:52:41;;;;;;;;;;;;;;;42.56;26.22;101455.28;5096345;28;19980;-54
2023/07/20 10:55:13;;;;;;;;;;;;;;;43.87;24.51;101454.81;5102074;28;19944;-54
2023/07/20 10:57:39;;;;;;;;;;;;;;;44.71;23.08;101457.72;5101051;28;19917;-53
2023/07/20 11:00:12;;;;;;;;;;;;;;;44.11;23.08;101442.56;5098966;28;19916;-50
2023/07/20 11:02:44;;;;;;;;;;;;;;;43.73;23.64;101441.63;5092395;28;20268;-53
2023/07/20 11:05:28;;;;;;;;;;;;;;;42.62;24.55;101448.03;5087223;28;19958;-56
2023/07/20 11:07:54;;;;;;;;;;;;;;;43.53;23.14;101442.91;5095896;28;19920;-48
2023/07/20 11:10:20;;;;;;;;;;;;;;;43.73;22.87;101450.09;5095294;28;19951;-52
2023/07/20 11:13:06;;;;;;;;;;;;;;;43.98;22.39;101447.06;5095577;28;19916;-48
2023/07/20 11:15:47;;;;;;;;;;;;;;;45.77;22.03;101446.72;5095104;28;19920;-49
2023/07/20 11:18:13;;;;;;;;;;;;;;;44.86;22.13;101447.88;5095252;28;19916;-54
2023/07/20 11:20:40;;;;;;;;;;;;;;;43.18;23.42;101438.25;5106974;28;19924;-53
2023/07/20 11:23:06;;;;;;;;;;;;;;;41.45;24.50;101429.41;5098099;28;19916;-52
2023/07/20 11:25:40;;;;;;;;;;;;;;;40.75;24.41;101427.50;5097434;28;19938;-52
2023/07/20 11:28:09;;;;;;;;;;;;;;;40.94;25.16;101434.00;5082692;28;20153;-50
2023/07/20 11:30:35;;;;;;;;;;;;;;;39.98;26.18;101419.66;5102511;28;19921;-52
2023/07/20 11:33:00;;;;;;;;;;;;;;;40.30;25.28;101421.94;5095229;28;19917;-54
2023/07/20 11:35:26;;;;;;;;;;;;;;;39.83;26.19;101418.72;5099855;28;19979;-50
2023/07/20 11:37:51;;;;;;;;;;;;;;;41.43;25.14;101420.59;5103177;28;19959;-51
2023/07/20 11:40:17;;;;;;;;;;;;;;;41.97;24.64;101417.09;5095157;28;19916;-53
2023/07/20 11:42:43;;;;;;;;;;;;;;;42.61;23.91;101412.69;5095082;28;19916;-52
2023/07/20 11:45:09;;;;;;;;;;;;;;;43.76;22.63;101416.25;5094846;28;19936;-51
2023/07/20 11:47:39;;;;;;;;;;;;;;;43.01;23.51;101406.16;5113814;28;19940;-54
2023/07/20 11:50:05;;;;;;;;;;;;;;;44.23;22.66;101410.25;5093902;28;19926;-52
2023/07/20 11:52:31;;;;;;;;;;;;;;;45.24;21.73;101416.81;5091610;28;19920;-54
2023/07/20 11:54:57;;;;;;;;;;;;;;;45.60;21.38;101409.06;5094203;28;19959;-56
2023/07/20 11:57:23;;;;;;;;;;;;;;;46.47;20.37;101416.09;5100699;28;19916;-55
2023/07/20 11:59:58;;;;;;;;;;;;;;;46.10;20.30;101413.88;5097362;28;19928;-56
2023/07/20 12:02:25;;;;;;;;;;;;;;;47.98;19.55;101418.91;5099573;28;19916;-53
2023/07/20 12:04:52;;;;;;;;;;;;;;;46.66;19.80;101412.50;5094647;28;19935;-55
2023/07/20 12:07:18;;;;;;;;;;;;;;;46.49;20.08;101408.78;5099410;28;19937;-54
2023/07/20 12:09:44;;;;;;;;;;;;;;;48.24;19.20;101412.16;5107954;28;19916;-54
2023/07/20 12:12:12;;;;;;;;;;;;;;;49.49;18.92;101413.81;5099756;28;19920;-56
2023/07/20 12:14:37;;;;;;;;;;;;;;;49.80;18.70;101413.22;5094907;28;19943;-54
2023/07/20 12:17:02;;;;;;;;;;;;;;;50.50;18.38;101415.28;5107312;28;19944;-55
2023/07/20 12:19:27;;;;;;;;;;;;;;;51.10;17.50;101421.19;5102286;28;19956;-56
2023/07/20 12:21:57;;;;;;;;;;;;;;;48.59;18.24;101405.19;5094693;28;19942;-54
2023/07/20 12:24:23;;;;;;;;;;;;;;;47.33;19.01;101401.44;5100534;28;19916;-54
2023/07/20 12:26:48;;;;;;;;;;;;;;;45.66;20.85;101394.03;5104002;28;19950;-54
2023/07/20 12:29:14;;;;;;;;;;;;;;;45.44;20.16;101382.25;5093981;28;19917;-51
2023/07/20 12:31:39;;;;;;;;;;;;;;;44.59;20.69;101380.09;5094310;28;19925;-51
2023/07/20 12:34:05;;;;;;;;;;;;;;;43.74;21.53;101372.84;5099140;28;19917;-52